Time;durP1;ratioP1;P1;durP2;ratioP2;P2;SDS_P1;SDS_P2;PMS_P1;PMS_P2;Temp;Humidity;BMP_temperature;BMP_pressure;BME280_temperature;BME280_humidity;BME280_pressure;Samples;Min_cycle;Max_cycle;Signal;HPM_P1;HPM_P2
2021/12/27 00:02:00;;;;;;;4.63;4.07;;;9.90;1.00;;;;;;5091890;28;20209;-74
2021/12/27 00:04:27;;;;;;;4.93;3.20;;;10.00;1.00;;;;;;5092472;28;20236;-74
2021/12/27 00:06:54;;;;;;;4.07;3.17;;;10.00;1.00;;;;;;5092018;28;20673;-74
2021/12/27 00:09:21;;;;;;;6.13;4.13;;;9.90;1.00;;;;;;5092452;28;20613;-74
2021/12/27 00:11:49;;;;;;;7.40;3.73;;;9.90;1.00;;;;;;5092144;28;20209;-77
2021/12/27 00:14:16;;;;;;;4.73;3.20;;;9.90;1.00;;;;;;5092192;28;20201;-76
2021/12/27 00:16:43;;;;;;;4.50;2.53;;;9.90;1.00;;;;;;5092287;28;20202;-76
2021/12/27 00:19:11;;;;;;;3.70;2.63;;;10.00;1.00;;;;;;5092620;28;20243;-76
2021/12/27 00:21:38;;;;;;;3.97;2.63;;;10.00;1.00;;;;;;5092652;28;20669;-76
2021/12/27 00:24:05;;;;;;;3.90;2.97;;;9.90;1.00;;;;;;5092229;28;20357;-76
2021/12/27 00:26:32;;;;;;;6.10;3.47;;;9.90;1.00;;;;;;5092322;28;20201;-76
2021/12/27 00:29:01;;;;;;;5.90;2.20;;;9.90;1.00;;;;;;5091475;28;20581;-77
2021/12/27 00:31:28;;;;;;;4.53;2.97;;;10.00;1.00;;;;;;5092148;28;20220;-76
2021/12/27 00:33:54;;;;;;;2.93;1.80;;;10.10;1.00;;;;;;5091981;28;20334;-76
2021/12/27 00:36:21;;;;;;;1.97;1.33;;;10.20;1.00;;;;;;5092131;28;20244;-76
2021/12/27 00:38:48;;;;;;;6.20;1.60;;;10.30;1.00;;;;;;5091635;28;20255;-76
2021/12/27 00:41:15;;;;;;;2.63;1.23;;;10.40;1.00;;;;;;5091807;28;20205;-72
2021/12/27 00:43:42;;;;;;;2.70;1.23;;;10.50;1.00;;;;;;5090920;28;20617;-72
2021/12/27 00:46:11;;;;;;;3.30;1.30;;;10.50;1.00;;;;;;5091500;28;20657;-73
2021/12/27 00:48:38;;;;;;;1.70;1.17;;;10.50;1.00;;;;;;5091720;28;20205;-74
2021/12/27 00:51:05;;;;;;;2.23;1.43;;;10.80;1.00;;;;;;5091127;28;20201;-74
2021/12/27 00:53:32;;;;;;;3.50;1.87;;;10.70;1.00;;;;;;5091400;28;20205;-74
2021/12/27 00:55:59;;;;;;;1.27;0.67;;;10.80;1.00;;;;;;5091026;28;20201;-74
2021/12/27 00:58:26;;;;;;;1.20;0.87;;;10.90;1.00;;;;;;5091536;28;20258;-74
2021/12/27 01:00:53;;;;;;;2.57;1.80;;;10.90;1.00;;;;;;5091299;28;20210;-74
2021/12/27 01:03:21;;;;;;;1.70;0.87;;;10.90;1.00;;;;;;5091597;28;20246;-74
2021/12/27 01:05:49;;;;;;;3.63;1.53;;;10.90;1.00;;;;;;5091089;28;20229;-74
2021/12/27 01:08:17;;;;;;;3.40;1.00;;;11.00;1.00;;;;;;5091353;28;20649;-74
2021/12/27 01:13:41;;;;;;;1.37;0.93;;;10.90;1.00;;;;;;5053917;28;20696;-75
2021/12/27 01:16:12;;;;;;;1.83;1.60;;;10.90;1.00;;;;;;5091339;28;20266;-74
2021/12/27 01:18:47;;;;;;;2.40;1.10;;;10.80;1.00;;;;;;5091297;28;20258;-75
2021/12/27 01:21:15;;;;;;;3.57;1.90;;;10.70;1.00;;;;;;5091137;28;20205;-74
2021/12/27 01:23:43;;;;;;;5.33;2.43;;;10.60;1.00;;;;;;5090666;28;20661;-74
2021/12/27 01:26:10;;;;;;;3.03;1.90;;;10.50;1.00;;;;;;5090972;28;20233;-74
2021/12/27 01:28:38;;;;;;;3.07;2.33;;;10.50;1.00;;;;;;5091220;28;20278;-74
2021/12/27 01:31:05;;;;;;;2.97;2.17;;;10.30;1.00;;;;;;5090827;28;20213;-74
2021/12/27 01:33:34;;;;;;;3.80;2.17;;;10.30;1.00;;;;;;5091079;28;20214;-75
2021/12/27 01:36:04;;;;;;;2.67;2.17;;;10.20;1.00;;;;;;5090848;28;20281;-75
2021/12/27 01:38:31;;;;;;;3.10;2.07;;;10.20;1.00;;;;;;5091011;28;20208;-74
2021/12/27 01:40:59;;;;;;;3.00;2.23;;;10.10;1.00;;;;;;5090456;28;20301;-75
2021/12/27 01:43:28;;;;;;;2.77;2.47;;;10.10;1.00;;;;;;5090745;28;20205;-75
2021/12/27 01:45:57;;;;;;;5.20;2.37;;;10.10;1.00;;;;;;5090314;28;20314;-73
2021/12/27 01:48:28;;;;;;;4.20;2.17;;;10.10;1.00;;;;;;5091087;28;20208;-73
2021/12/27 01:50:56;;;;;;;2.50;1.63;;;10.10;1.00;;;;;;5090178;28;20212;-73
2021/12/27 01:53:27;;;;;;;2.63;2.00;;;10.10;1.00;;;;;;5090930;28;20201;-70
2021/12/27 01:55:55;;;;;;;3.60;3.00;;;10.10;1.00;;;;;;5090239;28;20198;-70
2021/12/27 01:58:24;;;;;;;3.10;2.60;;;10.10;1.00;;;;;;5090648;28;20205;-72
2021/12/27 02:00:53;;;;;;;3.17;1.93;;;10.10;1.00;;;;;;5090329;28;20657;-72
2021/12/27 02:03:22;;;;;;;1.83;1.67;;;10.10;1.00;;;;;;5090801;28;20262;-71
2021/12/27 02:05:50;;;;;;;2.10;1.63;;;10.10;1.00;;;;;;5090371;28;20228;-70
2021/12/27 02:08:17;;;;;;;3.47;1.90;;;10.10;1.00;;;;;;5090731;28;20259;-70
2021/12/27 02:10:46;;;;;;;2.80;1.70;;;10.10;1.00;;;;;;5090133;28;20201;-74
2021/12/27 02:13:13;;;;;;;3.87;1.93;;;10.10;1.00;;;;;;5090592;28;20208;-73
2021/12/27 02:15:40;;;;;;;3.83;1.73;;;10.10;1.00;;;;;;5090735;28;20197;-74
2021/12/27 02:18:08;;;;;;;4.40;2.30;;;10.10;1.00;;;;;;5090629;28;20579;-73
2021/12/27 02:20:39;;;;;;;4.17;2.20;;;10.00;1.00;;;;;;5090871;28;20248;-74
2021/12/27 02:23:12;;;;;;;3.57;2.03;;;10.10;1.00;;;;;;5090589;28;20210;-73
2021/12/27 02:25:40;;;;;;;1.70;1.33;;;10.20;1.00;;;;;;5093277;28;20228;-74
2021/12/27 02:28:10;;;;;;;2.63;2.00;;;10.30;1.00;;;;;;5094335;28;20210;-74
2021/12/27 02:30:40;;;;;;;1.80;1.47;;;10.20;1.00;;;;;;5094470;28;20209;-74
2021/12/27 02:33:08;;;;;;;1.83;1.47;;;10.30;1.00;;;;;;5094400;28;20744;-74
2021/12/27 02:35:38;;;;;;;3.13;1.60;;;10.50;1.00;;;;;;5094643;28;20256;-74
2021/12/27 02:38:07;;;;;;;4.83;2.03;;;10.50;1.00;;;;;;5094101;28;20233;-73
2021/12/27 02:40:36;;;;;;;2.20;1.77;;;10.40;1.00;;;;;;5094238;28;20201;-73
2021/12/27 02:43:05;;;;;;;2.10;1.63;;;10.50;1.00;;;;;;5093753;28;20205;-75
2021/12/27 02:45:35;;;;;;;3.27;1.33;;;10.50;1.00;;;;;;5094272;28;20275;-75
2021/12/27 02:48:03;;;;;;;1.80;1.43;;;10.60;1.00;;;;;;5093689;28;20254;-74
2021/12/27 02:50:31;;;;;;;1.80;1.20;;;10.50;1.00;;;;;;5094072;28;20201;-76
2021/12/27 02:53:00;;;;;;;3.93;1.80;;;10.50;1.00;;;;;;5093844;28;20233;-75
2021/12/27 02:55:27;;;;;;;3.10;1.23;;;10.50;1.00;;;;;;5094109;28;20214;-74
2021/12/27 02:57:54;;;;;;;2.63;1.70;;;10.40;1.00;;;;;;5093711;28;20202;-76
2021/12/27 03:00:24;;;;;;;1.27;0.83;;;10.50;1.00;;;;;;5093941;28;20730;-78
2021/12/27 03:02:52;;;;;;;2.07;1.10;;;10.60;1.00;;;;;;5093447;28;20198;-80
2021/12/27 03:05:21;;;;;;;1.50;0.97;;;10.70;1.00;;;;;;5093638;28;20229;-76
2021/12/27 03:07:50;;;;;;;1.30;0.83;;;10.90;1.00;;;;;;5084543;28;20669;-77
2021/12/27 03:10:21;;;;;;;3.90;0.80;;;10.90;1.00;;;;;;5073498;28;20210;-75
2021/12/27 03:12:49;;;;;;;1.80;0.90;;;11.00;1.00;;;;;;5073034;28;20205;-75
2021/12/27 03:15:18;;;;;;;2.37;1.47;;;11.00;1.00;;;;;;5073369;28;20244;-75
2021/12/27 03:17:47;;;;;;;1.43;1.20;;;11.00;1.00;;;;;;5072826;28;20669;-75
2021/12/27 03:20:17;;;;;;;5.77;1.80;;;10.90;1.00;;;;;;5073503;28;20202;-77
2021/12/27 03:22:47;;;;;;;1.80;1.40;;;10.80;1.00;;;;;;5072747;28;20616;-76
2021/12/27 03:25:16;;;;;;;3.73;2.00;;;10.70;1.00;;;;;;5073292;28;20233;-77
2021/12/27 03:27:45;;;;;;;3.63;1.60;;;10.60;1.00;;;;;;5072767;28;20257;-76
2021/12/27 03:30:17;;;;;;;3.30;1.53;;;10.60;1.00;;;;;;5073105;28;20268;-81
2021/12/27 03:32:45;;;;;;;3.30;2.00;;;10.50;1.00;;;;;;5072642;28;20202;-79
2021/12/27 03:35:17;;;;;;;1.87;1.67;;;10.50;1.00;;;;;;5073210;28;20591;-78
2021/12/27 03:37:47;;;;;;;2.60;1.30;;;10.60;1.00;;;;;;5071882;28;20209;-78
2021/12/27 03:40:17;;;;;;;2.67;1.20;;;10.70;1.00;;;;;;5073120;28;20197;-78
2021/12/27 03:42:49;;;;;;;3.70;1.60;;;10.60;1.00;;;;;;5072623;28;20255;-79
2021/12/27 03:45:17;;;;;;;1.97;1.53;;;10.70;1.00;;;;;;5072920;28;20299;-77
2021/12/27 03:47:44;;;;;;;3.30;1.73;;;10.70;1.00;;;;;;5072602;28;20251;-75
2021/12/27 03:50:11;;;;;;;2.60;1.10;;;10.70;1.00;;;;;;5073026;28;20723;-75
2021/12/27 03:52:38;;;;;;;1.83;1.17;;;10.70;1.00;;;;;;5072977;28;20275;-73
2021/12/27 03:55:07;;;;;;;2.00;1.13;;;10.80;1.00;;;;;;5072536;28;20206;-74
2021/12/27 03:57:36;;;;;;;2.40;1.57;;;10.80;1.00;;;;;;5072872;28;20206;-76
2021/12/27 04:00:28;;;;;;;2.90;1.40;;;10.60;1.00;;;;;;5072511;28;20203;-77
2021/12/27 04:02:57;;;;;;;3.17;1.20;;;10.60;1.00;;;;;;5072071;28;20207;-75
2021/12/27 04:05:25;;;;;;;3.37;1.73;;;10.50;1.00;;;;;;5072368;28;20225;-75
2021/12/27 04:07:59;;;;;;;3.50;1.70;;;10.50;1.00;;;;;;5071721;28;20202;-77
2021/12/27 04:10:27;;;;;;;3.30;1.80;;;10.40;1.00;;;;;;5072566;28;20206;-77
2021/12/27 04:12:54;;;;;;;4.97;1.97;;;10.50;1.00;;;;;;5072106;28;20202;-77
2021/12/27 04:15:23;;;;;;;2.50;1.50;;;10.30;1.00;;;;;;5072103;28;20211;-76
2021/12/27 04:17:51;;;;;;;3.63;1.87;;;10.30;1.00;;;;;;5071817;28;20228;-77
2021/12/27 04:20:18;;;;;;;4.30;2.00;;;10.30;1.00;;;;;;5072197;28;20214;-77
2021/12/27 04:22:45;;;;;;;2.20;1.40;;;10.30;1.00;;;;;;5071658;28;20271;-76
2021/12/27 04:25:12;;;;;;;1.77;1.10;;;10.20;1.00;;;;;;5072028;28;20279;-77
2021/12/27 04:27:39;;;;;;;5.43;1.77;;;10.10;1.00;;;;;;5071908;28;20247;-76
2021/12/27 04:30:06;;;;;;;2.93;2.23;;;10.10;1.00;;;;;;5071760;28;20255;-77
2021/12/27 04:32:35;;;;;;;2.57;1.47;;;10.10;1.00;;;;;;5071928;28;20198;-76
2021/12/27 04:35:03;;;;;;;3.80;1.57;;;10.00;1.00;;;;;;5071423;28;20210;-77
2021/12/27 04:37:31;;;;;;;1.73;1.20;;;10.10;1.00;;;;;;5071754;28;20199;-76
2021/12/27 04:39:58;;;;;;;1.80;1.40;;;9.90;1.00;;;;;;5071527;28;20202;-76
2021/12/27 04:42:26;;;;;;;2.03;1.07;;;10.20;1.00;;;;;;5071862;28;20275;-76
2021/12/27 04:44:53;;;;;;;2.10;1.27;;;10.40;1.00;;;;;;5071227;28;20202;-76
2021/12/27 04:47:20;;;;;;;5.70;2.07;;;10.40;1.00;;;;;;5071125;28;20206;-76
2021/12/27 04:49:48;;;;;;;2.03;1.10;;;10.40;1.00;;;;;;5070546;28;20713;-76
2021/12/27 04:52:15;;;;;;;2.77;1.10;;;10.50;1.00;;;;;;5071613;28;20275;-76
2021/12/27 04:54:42;;;;;;;2.13;1.63;;;10.30;1.00;;;;;;5071236;28;20207;-76
2021/12/27 04:57:10;;;;;;;3.00;1.27;;;10.30;1.00;;;;;;5071842;28;20206;-77
2021/12/27 04:59:37;;;;;;;3.30;1.80;;;10.30;1.00;;;;;;5071803;28;20198;-76
2021/12/27 05:02:04;;;;;;;2.67;1.40;;;10.30;1.00;;;;;;5071629;28;20227;-79
2021/12/27 05:04:31;;;;;;;2.47;1.47;;;10.30;1.00;;;;;;5070928;28;20259;-79
2021/12/27 05:07:00;;;;;;;3.30;2.13;;;10.40;1.00;;;;;;5071064;28;20238;-79
2021/12/27 05:09:27;;;;;;;2.60;1.50;;;10.40;1.00;;;;;;5071448;28;20206;-76
2021/12/27 05:11:54;;;;;;;2.10;1.67;;;10.40;1.00;;;;;;5070923;28;20222;-76
2021/12/27 05:14:21;;;;;;;3.10;2.03;;;10.40;1.00;;;;;;5071121;28;20584;-76
2021/12/27 05:16:49;;;;;;;5.37;2.70;;;10.50;1.00;;;;;;5070827;28;20206;-76
2021/12/27 05:19:16;;;;;;;3.40;1.40;;;10.40;1.00;;;;;;5071048;28;20202;-77
2021/12/27 05:21:43;;;;;;;3.47;2.00;;;10.40;1.00;;;;;;5070616;28;20658;-76
2021/12/27 05:24:12;;;;;;;2.30;1.93;;;10.40;1.00;;;;;;5071043;28;20214;-76
2021/12/27 05:26:39;;;;;;;2.23;1.60;;;10.40;1.00;;;;;;5070862;28;20283;-75
2021/12/27 05:29:06;;;;;;;1.83;1.57;;;10.40;1.00;;;;;;5070831;28;20205;-76
2021/12/27 05:31:33;;;;;;;3.50;1.87;;;10.30;1.00;;;;;;5071207;28;20202;-78
2021/12/27 05:34:00;;;;;;;3.47;2.27;;;10.30;1.00;;;;;;5070511;28;20202;-77
2021/12/27 05:36:27;;;;;;;4.23;1.87;;;10.30;1.00;;;;;;5070853;28;20264;-78
2021/12/27 05:38:54;;;;;;;2.20;1.67;;;10.30;1.00;;;;;;5070438;28;20206;-76
2021/12/27 05:41:23;;;;;;;5.33;1.70;;;10.30;1.00;;;;;;5070759;28;20736;-75
2021/12/27 05:43:50;;;;;;;2.47;1.77;;;10.30;1.00;;;;;;5070696;28;20259;-76
2021/12/27 05:46:17;;;;;;;3.10;2.10;;;10.20;1.00;;;;;;5070891;28;20234;-75
2021/12/27 05:48:44;;;;;;;3.27;1.87;;;10.20;1.00;;;;;;5070098;28;20677;-75
2021/12/27 05:51:11;;;;;;;3.90;2.07;;;10.30;1.00;;;;;;5070267;28;20701;-76
2021/12/27 05:53:38;;;;;;;2.53;1.63;;;10.30;1.00;;;;;;5070802;28;20205;-75
2021/12/27 05:56:05;;;;;;;4.07;2.20;;;10.40;1.00;;;;;;5070057;28;20211;-75
2021/12/27 05:58:34;;;;;;;2.20;1.70;;;10.50;1.00;;;;;;5070400;28;20255;-75
2021/12/27 06:01:01;;;;;;;7.00;3.07;;;10.50;1.00;;;;;;5074147;28;20256;-75
2021/12/27 06:03:28;;;;;;;4.20;2.73;;;10.50;99.90;;;;;;5074536;28;20205;-75
2021/12/27 06:05:55;;;;;;;3.20;2.53;;;10.30;1.00;;;;;;5074488;28;20279;-79
2021/12/27 06:08:22;;;;;;;5.17;2.83;;;10.20;99.90;;;;;;5075015;28;20271;-81
2021/12/27 06:10:48;;;;;;;4.27;2.37;;;10.30;99.90;;;;;;5074779;28;20278;-78
2021/12/27 06:13:15;;;;;;;2.90;2.60;;;10.20;99.90;;;;;;5074912;28;20206;-79
2021/12/27 06:15:44;;;;;;;4.20;3.00;;;10.20;99.90;;;;;;5074180;28;20259;-78
2021/12/27 06:18:11;;;;;;;5.87;2.70;;;10.30;99.90;;;;;;5074592;28;20198;-75
2021/12/27 06:20:38;;;;;;;4.73;2.50;;;10.30;99.90;;;;;;5074611;28;20232;-75
2021/12/27 06:23:05;;;;;;;3.33;2.50;;;10.30;99.90;;;;;;5074304;28;20247;-75
2021/12/27 06:25:32;;;;;;;5.83;3.70;;;10.20;99.90;;;;;;5074244;28;20561;-75
2021/12/27 06:27:59;;;;;;;3.13;2.30;;;10.40;1.00;;;;;;5074019;28;20206;-76
2021/12/27 06:30:26;;;;;;;4.73;2.40;;;10.40;1.00;;;;;;5074142;28;20678;-75
2021/12/27 06:32:55;;;;;;;3.23;2.33;;;10.40;1.00;;;;;;5073611;28;20204;-75
2021/12/27 06:35:22;;;;;;;4.93;3.30;;;10.40;1.00;;;;;;5074174;28;20202;-75
2021/12/27 06:37:49;;;;;;;3.90;3.27;;;10.40;1.00;;;;;;5073493;28;20631;-75
2021/12/27 06:40:17;;;;;;;5.23;3.47;;;10.40;1.00;;;;;;5074257;28;20198;-75
2021/12/27 06:42:45;;;;;;;5.17;3.33;;;10.40;1.00;;;;;;5073558;28;20232;-75
2021/12/27 06:45:12;;;;;;;8.50;3.87;;;10.40;1.00;;;;;;5073869;28;20206;-75
2021/12/27 06:47:40;;;;;;;6.67;2.97;;;10.40;1.00;;;;;;5073474;28;20234;-75
2021/12/27 06:50:10;;;;;;;6.50;3.93;;;10.50;1.00;;;;;;5073867;28;20207;-75
2021/12/27 06:52:38;;;;;;;5.87;3.67;;;10.40;1.00;;;;;;5074119;28;20213;-75
2021/12/27 06:55:05;;;;;;;4.60;3.63;;;10.50;1.00;;;;;;5073795;28;20205;-80
2021/12/27 06:57:32;;;;;;;7.70;3.80;;;10.50;1.00;;;;;;5073561;28;20259;-77
2021/12/27 07:00:01;;;;;;;6.37;4.03;;;10.50;1.00;;;;;;5073281;28;20210;-75
2021/12/27 07:02:28;;;;;;;6.20;4.10;;;10.50;1.00;;;;;;5073348;28;20205;-75
2021/12/27 07:04:55;;;;;;;5.70;3.60;;;10.40;1.00;;;;;;5073183;28;20662;-75
2021/12/27 07:07:24;;;;;;;4.50;3.00;;;10.50;1.00;;;;;;5073611;28;20233;-77
2021/12/27 07:09:51;;;;;;;2.60;2.27;;;10.70;1.00;;;;;;5073446;28;20253;-87
2021/12/27 07:12:18;;;;;;;4.23;1.83;;;10.70;1.00;;;;;;5073173;28;20206;-80
2021/12/27 07:14:47;;;;;;;3.40;1.47;;;10.80;99.90;;;;;;5073254;28;20210;-80
2021/12/27 07:17:14;;;;;;;2.60;1.83;;;10.80;99.90;;;;;;5073735;28;20674;-79
2021/12/27 07:19:41;;;;;;;3.13;2.13;;;10.80;98.20;;;;;;5073680;28;20202;-77
2021/12/27 07:22:09;;;;;;;2.27;1.23;;;10.80;61.80;;;;;;5073661;28;20210;-75
2021/12/27 07:24:38;;;;;;;2.13;1.47;;;10.70;99.40;;;;;;5073217;28;20618;-74
2021/12/27 07:27:05;;;;;;;2.33;1.27;;;10.70;99.90;;;;;;5085100;28;20365;-77
2021/12/27 07:29:32;;;;;;;5.57;1.70;;;10.70;82.30;;;;;;5085027;28;20217;-82
2021/12/27 07:31:59;;;;;;;3.37;1.20;;;10.70;99.90;;;;;;5082867;28;20216;-79
2021/12/27 07:34:27;;;;;;;1.43;1.03;;;10.60;99.90;;;;;;5091191;28;20209;-81
2021/12/27 07:36:56;;;;;;;2.33;1.17;;;10.70;99.90;;;;;;5073133;28;20213;-76
2021/12/27 07:39:24;;;;;;;2.87;1.00;;;10.80;17.10;;;;;;5083340;28;20268;-77
2021/12/27 07:41:53;;;;;;;1.33;1.23;;;10.70;1.00;;;;;;5082026;28;20699;-78
2021/12/27 07:44:20;;;;;;;2.87;1.20;;;10.80;1.00;;;;;;5091473;28;20197;-80
2021/12/27 07:46:48;;;;;;;2.83;1.13;;;10.80;1.00;;;;;;5072433;28;20311;-77
2021/12/27 07:49:17;;;;;;;3.80;1.43;;;10.80;1.00;;;;;;5073107;28;20229;-77
2021/12/27 07:51:44;;;;;;;1.50;0.97;;;10.80;18.90;;;;;;5072454;28;20205;-79
2021/12/27 07:54:11;;;;;;;4.27;1.83;;;10.70;26.80;;;;;;5089744;28;20222;-77
2021/12/27 07:56:39;;;;;;;2.43;0.93;;;10.70;26.30;;;;;;5093213;28;20259;-78
2021/12/27 07:59:07;;;;;;;4.00;1.80;;;10.70;26.30;;;;;;5092635;28;20252;-77
2021/12/27 08:01:35;;;;;;;3.57;2.50;;;10.70;28.90;;;;;;5093285;28;20254;-79
2021/12/27 08:04:03;;;;;;;3.13;1.93;;;10.70;26.20;;;;;;5092320;28;20210;-77
2021/12/27 08:06:31;;;;;;;3.87;0.93;;;10.80;7.50;;;;;;5085559;28;20238;-76
2021/12/27 08:08:58;;;;;;;1.40;1.00;;;10.80;1.00;;;;;;5080987;28;20209;-77
2021/12/27 08:11:26;;;;;;;3.30;1.50;;;10.90;1.00;;;;;;5076440;28;20262;-78
2021/12/27 08:13:54;;;;;;;2.70;2.23;;;10.90;1.00;;;;;;5071793;28;20206;-82
2021/12/27 08:16:24;;;;;;;3.63;2.90;;;10.90;1.00;;;;;;5072366;28;20194;-77
2021/12/27 08:18:52;;;;;;;4.17;1.60;;;10.90;1.00;;;;;;5080236;28;20201;-85
2021/12/27 08:21:19;;;;;;;3.67;1.80;;;10.90;1.00;;;;;;5080323;28;20263;-80
2021/12/27 08:23:46;;;;;;;3.20;2.03;;;10.80;1.00;;;;;;5090029;28;20205;-79
2021/12/27 08:26:14;;;;;;;3.20;2.50;;;10.80;1.00;;;;;;5075017;28;20241;-84
2021/12/27 08:28:41;;;;;;;6.23;2.20;;;10.80;1.00;;;;;;5071806;28;20548;-82
2021/12/27 08:31:08;;;;;;;7.77;1.87;;;10.90;1.00;;;;;;5072409;28;20210;-87
2021/12/27 08:33:36;;;;;;;3.93;1.80;;;10.90;1.00;;;;;;5076322;28;20266;-81
2021/12/27 08:36:03;;;;;;;1.60;1.30;;;10.90;1.00;;;;;;5092156;28;20201;-85
2021/12/27 08:38:30;;;;;;;3.23;1.10;;;10.90;1.00;;;;;;5092136;28;20259;-76
2021/12/27 08:40:57;;;;;;;1.90;1.47;;;11.00;1.00;;;;;;5090500;28;20201;-77
2021/12/27 08:43:25;;;;;;;2.77;1.20;;;11.00;1.00;;;;;;5090448;28;20201;-76
2021/12/27 08:45:52;;;;;;;3.77;1.57;;;11.00;1.00;;;;;;5090422;28;20208;-77
2021/12/27 08:48:20;;;;;;;3.50;1.60;;;11.00;1.00;;;;;;5091534;28;20237;-77
2021/12/27 08:50:48;;;;;;;4.60;1.70;;;11.10;1.00;;;;;;5082248;28;20255;-76
2021/12/27 08:53:15;;;;;;;1.93;1.10;;;11.20;1.00;;;;;;5071453;28;20198;-77
2021/12/27 08:55:42;;;;;;;4.13;1.33;;;11.20;1.00;;;;;;5071164;28;20206;-74
2021/12/27 08:58:09;;;;;;;2.23;1.20;;;11.30;1.00;;;;;;5071467;28;20252;-76
2021/12/27 09:00:36;;;;;;;2.00;1.27;;;11.30;1.00;;;;;;5071565;28;20255;-74
2021/12/27 09:03:03;;;;;;;2.67;1.23;;;11.20;1.00;;;;;;5070805;28;20260;-76
2021/12/27 09:05:30;;;;;;;2.07;1.50;;;11.20;1.00;;;;;;5071149;28;20263;-76
2021/12/27 09:07:59;;;;;;;2.77;0.93;;;11.30;1.00;;;;;;5072182;28;20314;-76
2021/12/27 09:10:25;;;;;;;1.63;1.10;;;11.30;1.00;;;;;;5082419;28;20209;-75
2021/12/27 09:12:52;;;;;;;2.00;1.20;;;11.40;1.00;;;;;;5091021;28;20201;-76
2021/12/27 09:15:19;;;;;;;6.00;1.87;;;11.40;1.00;;;;;;5091520;28;20206;-75
2021/12/27 09:17:46;;;;;;;2.63;1.33;;;11.40;1.00;;;;;;5086206;28;20202;-76
2021/12/27 09:20:14;;;;;;;5.10;1.87;;;11.50;1.00;;;;;;5085372;28;20254;-76
2021/12/27 09:22:41;;;;;;;2.87;1.47;;;11.60;1.00;;;;;;5085847;28;20205;-76
2021/12/27 09:25:10;;;;;;;2.80;1.43;;;11.70;1.00;;;;;;5084399;28;20354;-74
2021/12/27 09:27:39;;;;;;;3.80;1.43;;;11.80;1.00;;;;;;5075623;28;20310;-73
2021/12/27 09:30:07;;;;;;;4.35;1.30;;;11.90;1.00;;;;;;5086033;28;20213;-74
2021/12/27 09:32:34;;;;;;;2.90;1.30;;;12.00;1.00;;;;;;5082723;28;20730;-75
2021/12/27 09:35:01;;;;;;;4.78;1.55;;;12.00;1.00;;;;;;5072546;28;20197;-74
2021/12/27 09:37:28;;;;;;;2.47;1.30;;;12.00;1.00;;;;;;5070871;28;20202;-75
2021/12/27 09:39:56;;;;;;;1.88;1.00;;;12.10;1.00;;;;;;5072026;28;20222;-75
2021/12/27 09:42:26;;;;;;;3.03;1.42;;;12.10;1.00;;;;;;5072400;28;20252;-74
2021/12/27 09:44:55;;;;;;;6.63;1.93;;;12.00;1.00;;;;;;5077678;28;20267;-75
2021/12/27 09:47:22;;;;;;;4.45;1.23;;;12.00;1.00;;;;;;5083277;28;20332;-76
2021/12/27 09:49:50;;;;;;;4.82;1.50;;;12.20;1.00;;;;;;5072609;28;20256;-75
2021/12/27 09:52:17;;;;;;;4.05;1.65;;;12.10;1.00;;;;;;5084600;28;20217;-74
2021/12/27 09:54:47;;;;;;;7.68;2.90;;;12.00;1.00;;;;;;5090447;28;20697;-75
2021/12/27 09:57:14;;;;;;;11.20;4.85;;;11.90;1.00;;;;;;5090834;28;20208;-76
2021/12/27 09:59:43;;;;;;;5.83;3.00;;;11.80;1.00;;;;;;5090692;28;20250;-74
2021/12/27 10:02:11;;;;;;;3.53;1.87;;;11.90;1.00;;;;;;5090341;28;20201;-76
2021/12/27 10:04:38;;;;;;;4.13;1.57;;;11.90;1.00;;;;;;5091020;28;20201;-75
2021/12/27 10:07:05;;;;;;;16.57;10.10;;;12.00;1.00;;;;;;5090770;28;20233;-75
2021/12/27 10:09:34;;;;;;;25.25;16.20;;;12.10;1.00;;;;;;5090501;28;20198;-75
2021/12/27 10:12:06;;;;;;;14.25;6.47;;;12.50;1.00;;;;;;5089905;28;20228;-76
2021/12/27 10:14:35;;;;;;;13.68;7.18;;;12.90;1.00;;;;;;5090576;28;20208;-76
2021/12/27 10:17:10;;;;;;;22.98;13.73;;;13.80;1.00;;;;;;5090277;28;21034;-75
2021/12/27 10:19:38;;;;;;;16.83;11.77;;;14.40;1.00;;;;;;5090914;28;20223;-76
2021/12/27 10:22:11;;;;;;;24.58;15.80;;;15.90;1.00;;;;;;5090494;28;20198;-74
2021/12/27 10:24:38;;;;;;;9.32;3.95;;;16.00;1.00;;;;;;5090611;28;20201;-76
2021/12/27 10:27:06;;;;;;;6.72;1.65;;;16.60;1.00;;;;;;5082045;28;20281;-76
2021/12/27 10:29:37;;;;;;;8.23;3.65;;;15.80;1.00;;;;;;5087940;28;20213;-81
2021/12/27 10:32:09;;;;;;;12.90;5.22;;;15.00;1.00;;;;;;5090682;28;20198;-77
2021/12/27 10:34:39;;;;;;;12.40;5.95;;;14.70;1.00;;;;;;5090731;28;20287;-76
2021/12/27 10:37:19;;;;;;;13.85;7.85;;;14.30;1.00;;;;;;5090389;28;20262;-76
2021/12/27 10:39:53;;;;;;;15.20;8.27;;;14.10;1.00;;;;;;5089868;28;20270;-75
2021/12/27 10:42:22;;;;;;;7.55;2.40;;;13.90;1.00;;;;;;5088163;28;20544;-75
2021/12/27 10:44:53;;;;;;;6.28;2.60;;;13.70;1.00;;;;;;5080870;28;20205;-76
2021/12/27 10:47:29;;;;;;;9.43;2.90;;;13.40;1.00;;;;;;5073853;28;20234;-75
2021/12/27 10:50:03;;;;;;;6.03;2.05;;;13.30;1.00;;;;;;5077627;28;20205;-76
2021/12/27 10:52:52;;;;;;;8.02;3.05;;;13.30;1.00;;;;;;5078633;28;20677;-76
2021/12/27 10:55:21;;;;;;;16.35;8.90;;;13.40;1.00;;;;;;5073871;28;20206;-76
2021/12/27 10:57:48;;;;;;;6.80;3.67;;;13.40;1.00;;;;;;5073308;28;20198;-76
2021/12/27 11:00:32;;;;;;;9.23;2.90;;;13.40;1.00;;;;;;5081345;28;20213;-77
2021/12/27 11:03:02;;;;;;;11.43;5.30;;;13.90;1.00;;;;;;5090314;28;20217;-77
2021/12/27 11:05:31;;;;;;;7.97;5.32;;;14.20;1.00;;;;;;5091923;28;20205;-76
2021/12/27 11:08:02;;;;;;;11.57;2.50;;;14.40;1.00;;;;;;5073607;28;20751;-76
2021/12/27 11:10:33;;;;;;;12.52;8.63;;;14.50;1.00;;;;;;5073248;28;20690;-76
2021/12/27 11:13:00;;;;;;;7.18;2.58;;;14.50;1.00;;;;;;5088714;28;20193;-76
2021/12/27 11:15:29;;;;;;;13.70;6.72;;;14.40;1.00;;;;;;5093807;28;20254;-75
2021/12/27 11:17:56;;;;;;;12.48;3.97;;;14.10;1.00;;;;;;5092954;28;20209;-76
2021/12/27 11:20:26;;;;;;;7.57;2.55;;;14.00;1.00;;;;;;5088954;28;20206;-75
2021/12/27 11:22:55;;;;;;;5.15;2.70;;;14.00;1.00;;;;;;5078932;28;20255;-76
2021/12/27 11:25:28;;;;;;;14.73;2.60;;;14.10;1.00;;;;;;5087889;28;20731;-76
2021/12/27 11:27:56;;;;;;;7.75;3.00;;;14.10;1.00;;;;;;5087276;28;20230;-75
2021/12/27 11:30:25;;;;;;;9.18;4.53;;;14.10;1.00;;;;;;5082153;28;20210;-75
2021/12/27 11:33:04;;;;;;;12.68;3.25;;;14.10;1.00;;;;;;5085417;28;20209;-75
2021/12/27 11:35:35;;;;;;;8.77;2.00;;;14.20;1.00;;;;;;5090639;28;20255;-76
2021/12/27 11:38:02;;;;;;;13.48;3.35;;;14.00;1.00;;;;;;5079725;28;20213;-76
2021/12/27 11:40:41;;;;;;;12.13;3.55;;;14.00;1.00;;;;;;5089221;28;20609;-76
2021/12/27 11:43:08;;;;;;;16.67;5.88;;;14.20;1.00;;;;;;5089299;28;20745;-75
2021/12/27 11:45:45;;;;;;;12.73;4.13;;;14.40;1.00;;;;;;5087435;28;20254;-76
2021/12/27 11:48:15;;;;;;;15.23;4.50;;;14.30;1.00;;;;;;5077982;28;20230;-76
2021/12/27 11:51:07;;;;;;;13.75;3.28;;;14.30;1.00;;;;;;5076814;28;20626;-76
2021/12/27 11:53:36;;;;;;;15.10;4.05;;;14.40;1.00;;;;;;5091809;28;20326;-76
2021/12/27 11:56:08;;;;;;;18.60;6.07;;;15.00;1.00;;;;;;5072368;28;20206;-76
2021/12/27 11:58:37;;;;;;;11.73;4.28;;;15.00;1.00;;;;;;5075782;28;20708;-76
2021/12/27 12:01:06;;;;;;;20.23;7.07;;;14.80;1.00;;;;;;5072512;28;20206;-77
2021/12/27 12:03:42;;;;;;;23.08;5.30;;;14.90;1.00;;;;;;5072639;28;20202;-76
2021/12/27 12:06:38;;;;;;;12.90;3.25;;;15.10;1.00;;;;;;5072819;28;20635;-75
2021/12/27 12:09:11;;;;;;;14.48;5.20;;;14.90;1.00;;;;;;5072331;28;20238;-76
2021/12/27 12:11:38;;;;;;;16.67;4.47;;;15.00;1.00;;;;;;5072629;28;20206;-76
2021/12/27 12:14:30;;;;;;;13.88;3.58;;;15.00;1.00;;;;;;5072478;28;20666;-76
2021/12/27 12:16:59;;;;;;;9.93;3.95;;;14.80;1.00;;;;;;5066434;28;20259;-76
2021/12/27 12:19:50;;;;;;;18.75;4.30;;;14.70;1.00;;;;;;5071937;28;20202;-76
2021/12/27 12:22:37;;;;;;;13.88;4.82;;;14.70;1.00;;;;;;5073717;28;20266;-76
2021/12/27 12:25:17;;;;;;;13.65;5.00;;;14.40;1.00;;;;;;5086193;28;20213;-78
2021/12/27 12:27:52;;;;;;;25.90;7.10;;;14.50;1.00;;;;;;5087696;28;20282;-77
2021/12/27 12:30:19;;;;;;;26.15;7.28;;;14.50;1.00;;;;;;5071941;28;20634;-76
2021/12/27 12:32:58;;;;;;;14.48;4.28;;;14.80;1.00;;;;;;5071705;28;20198;-76
2021/12/27 12:35:33;;;;;;;16.42;4.07;;;15.00;1.00;;;;;;5071785;28;20688;-75
2021/12/27 12:38:16;;;;;;;20.65;5.63;;;15.50;1.00;;;;;;5071383;28;20209;-74
2021/12/27 12:40:44;;;;;;;20.90;5.63;;;16.10;1.00;;;;;;5071281;28;20206;-75
2021/12/27 12:43:11;;;;;;;19.92;4.03;;;16.20;1.00;;;;;;5070480;28;20259;-77
2021/12/27 12:45:39;;;;;;;17.83;4.70;;;15.70;1.00;;;;;;5072067;28;20282;-75
2021/12/27 12:48:07;;;;;;;11.35;4.32;;;15.60;1.00;;;;;;5071505;28;20230;-78
2021/12/27 12:50:36;;;;;;;23.25;5.45;;;15.40;1.00;;;;;;5071229;28;20208;-76
2021/12/27 12:53:05;;;;;;;20.65;5.05;;;15.20;1.00;;;;;;5071498;28;20237;-77
2021/12/27 12:55:36;;;;;;;19.25;5.38;;;15.00;1.00;;;;;;5071614;28;20213;-77
2021/12/27 12:58:04;;;;;;;18.95;3.75;;;14.90;1.00;;;;;;5071000;28;20217;-78
2021/12/27 13:00:32;;;;;;;20.55;6.45;;;15.30;1.00;;;;;;5071738;28;20202;-79
2021/12/27 13:03:10;;;;;;;15.65;4.25;;;15.70;1.00;;;;;;5070968;28;20256;-76
2021/12/27 13:05:37;;;;;;;16.73;4.55;;;15.70;1.00;;;;;;5071859;28;20205;-80
2021/12/27 13:08:05;;;;;;;17.55;4.07;;;15.60;1.00;;;;;;5071113;28;20728;-77